sensor_id;sensor_type;location;lat;lon;timestamp;P1;durP1;ratioP1;P2;durP2;ratioP2
20251;SDS011;10284;58.364;15.550;2023-11-19T00:01:31;4.25;;;3.00;;
20251;SDS011;10284;58.364;15.550;2023-11-19T00:03:57;5.32;;;2.55;;
20251;SDS011;10284;58.364;15.550;2023-11-19T00:06:23;4.03;;;2.67;;
20251;SDS011;10284;58.364;15.550;2023-11-19T00:08:48;3.78;;;2.58;;
20251;SDS011;10284;58.364;15.550;2023-11-19T00:11:15;3.80;;;2.60;;
20251;SDS011;10284;58.364;15.550;2023-11-19T00:13:40;2.92;;;2.50;;
20251;SDS011;10284;58.364;15.550;2023-11-19T00:16:06;3.28;;;2.45;;
20251;SDS011;10284;58.364;15.550;2023-11-19T00:18:32;3.72;;;2.53;;
20251;SDS011;10284;58.364;15.550;2023-11-19T00:20:58;3.67;;;2.72;;
20251;SDS011;10284;58.364;15.550;2023-11-19T00:23:23;3.38;;;2.67;;
20251;SDS011;10284;58.364;15.550;2023-11-19T00:25:48;2.90;;;2.30;;
20251;SDS011;10284;58.364;15.550;2023-11-19T00:28:14;3.63;;;2.67;;
20251;SDS011;10284;58.364;15.550;2023-11-19T00:30:39;3.38;;;2.60;;
20251;SDS011;10284;58.364;15.550;2023-11-19T00:33:06;4.15;;;3.10;;
20251;SDS011;10284;58.364;15.550;2023-11-19T00:35:31;3.70;;;2.80;;
20251;SDS011;10284;58.364;15.550;2023-11-19T00:37:57;4.85;;;2.97;;
20251;SDS011;10284;58.364;15.550;2023-11-19T00:40:23;3.38;;;2.58;;
20251;SDS011;10284;58.364;15.550;2023-11-19T00:42:48;3.58;;;2.40;;
20251;SDS011;10284;58.364;15.550;2023-11-19T00:45:14;4.70;;;2.63;;
20251;SDS011;10284;58.364;15.550;2023-11-19T00:47:40;5.47;;;2.53;;
20251;SDS011;10284;58.364;15.550;2023-11-19T00:50:05;5.03;;;3.00;;
20251;SDS011;10284;58.364;15.550;2023-11-19T00:52:34;4.50;;;2.90;;
20251;SDS011;10284;58.364;15.550;2023-11-19T00:55:00;3.95;;;2.67;;
20251;SDS011;10284;58.364;15.550;2023-11-19T00:57:26;3.70;;;2.50;;
20251;SDS011;10284;58.364;15.550;2023-11-19T00:59:52;4.95;;;2.83;;
20251;SDS011;10284;58.364;15.550;2023-11-19T01:02:17;3.60;;;2.70;;
20251;SDS011;10284;58.364;15.550;2023-11-19T01:04:42;4.38;;;2.58;;
20251;SDS011;10284;58.364;15.550;2023-11-19T01:07:09;3.58;;;2.60;;
20251;SDS011;10284;58.364;15.550;2023-11-19T01:09:37;4.47;;;2.90;;
20251;SDS011;10284;58.364;15.550;2023-11-19T01:12:03;2.97;;;2.08;;
20251;SDS011;10284;58.364;15.550;2023-11-19T01:14:29;4.13;;;2.50;;
20251;SDS011;10284;58.364;15.550;2023-11-19T01:16:54;3.95;;;2.40;;
20251;SDS011;10284;58.364;15.550;2023-11-19T01:19:23;3.47;;;2.45;;
20251;SDS011;10284;58.364;15.550;2023-11-19T01:21:49;3.75;;;2.67;;
20251;SDS011;10284;58.364;15.550;2023-11-19T01:24:15;4.15;;;2.70;;
20251;SDS011;10284;58.364;15.550;2023-11-19T01:26:41;4.45;;;2.47;;
20251;SDS011;10284;58.364;15.550;2023-11-19T01:29:15;5.07;;;3.05;;
20251;SDS011;10284;58.364;15.550;2023-11-19T01:31:41;4.03;;;2.55;;
20251;SDS011;10284;58.364;15.550;2023-11-19T01:34:07;4.45;;;2.38;;
20251;SDS011;10284;58.364;15.550;2023-11-19T01:36:32;4.05;;;2.60;;
20251;SDS011;10284;58.364;15.550;2023-11-19T01:38:58;3.60;;;2.80;;
20251;SDS011;10284;58.364;15.550;2023-11-19T01:41:23;4.13;;;2.42;;
20251;SDS011;10284;58.364;15.550;2023-11-19T01:43:50;3.88;;;2.70;;
20251;SDS011;10284;58.364;15.550;2023-11-19T01:46:15;5.22;;;2.80;;
20251;SDS011;10284;58.364;15.550;2023-11-19T01:48:41;3.20;;;2.40;;
20251;SDS011;10284;58.364;15.550;2023-11-19T01:51:08;3.75;;;2.80;;
20251;SDS011;10284;58.364;15.550;2023-11-19T01:53:34;3.20;;;2.60;;
20251;SDS011;10284;58.364;15.550;2023-11-19T01:56:01;3.97;;;2.60;;
20251;SDS011;10284;58.364;15.550;2023-11-19T01:58:26;3.42;;;2.40;;
20251;SDS011;10284;58.364;15.550;2023-11-19T02:00:52;2.92;;;2.30;;
20251;SDS011;10284;58.364;15.550;2023-11-19T02:03:17;3.83;;;2.70;;
20251;SDS011;10284;58.364;15.550;2023-11-19T02:05:44;3.83;;;2.58;;
20251;SDS011;10284;58.364;15.550;2023-11-19T02:08:11;2.63;;;2.20;;
20251;SDS011;10284;58.364;15.550;2023-11-19T02:10:38;4.32;;;2.50;;
20251;SDS011;10284;58.364;15.550;2023-11-19T02:13:04;3.13;;;2.50;;
20251;SDS011;10284;58.364;15.550;2023-11-19T02:15:31;3.40;;;2.60;;
20251;SDS011;10284;58.364;15.550;2023-11-19T02:17:56;3.72;;;2.45;;
20251;SDS011;10284;58.364;15.550;2023-11-19T02:20:22;4.20;;;2.38;;
20251;SDS011;10284;58.364;15.550;2023-11-19T02:22:47;3.92;;;2.80;;
20251;SDS011;10284;58.364;15.550;2023-11-19T02:25:20;3.17;;;2.20;;
20251;SDS011;10284;58.364;15.550;2023-11-19T02:27:58;4.30;;;2.60;;
20251;SDS011;10284;58.364;15.550;2023-11-19T02:30:25;4.03;;;2.35;;
20251;SDS011;10284;58.364;15.550;2023-11-19T02:32:54;2.65;;;2.08;;
20251;SDS011;10284;58.364;15.550;2023-11-19T02:35:27;3.92;;;2.60;;
20251;SDS011;10284;58.364;15.550;2023-11-19T02:37:54;4.63;;;2.60;;
20251;SDS011;10284;58.364;15.550;2023-11-19T02:40:19;4.32;;;2.70;;
20251;SDS011;10284;58.364;15.550;2023-11-19T02:42:44;2.88;;;2.50;;
20251;SDS011;10284;58.364;15.550;2023-11-19T02:45:10;3.45;;;2.30;;
20251;SDS011;10284;58.364;15.550;2023-11-19T02:47:42;3.10;;;2.05;;
20251;SDS011;10284;58.364;15.550;2023-11-19T02:50:11;3.10;;;2.25;;
20251;SDS011;10284;58.364;15.550;2023-11-19T02:52:43;3.85;;;2.38;;
20251;SDS011;10284;58.364;15.550;2023-11-19T02:55:09;3.78;;;2.38;;
20251;SDS011;10284;58.364;15.550;2023-11-19T02:57:38;3.22;;;2.28;;
20251;SDS011;10284;58.364;15.550;2023-11-19T03:00:06;3.17;;;2.33;;
20251;SDS011;10284;58.364;15.550;2023-11-19T03:02:38;2.90;;;2.10;;
20251;SDS011;10284;58.364;15.550;2023-11-19T03:05:09;3.40;;;2.55;;
20251;SDS011;10284;58.364;15.550;2023-11-19T03:07:36;6.25;;;2.53;;
20251;SDS011;10284;58.364;15.550;2023-11-19T03:10:01;4.30;;;2.40;;
20251;SDS011;10284;58.364;15.550;2023-11-19T03:12:27;3.90;;;2.45;;
20251;SDS011;10284;58.364;15.550;2023-11-19T03:14:52;4.72;;;2.90;;
20251;SDS011;10284;58.364;15.550;2023-11-19T03:17:18;3.67;;;2.83;;
20251;SDS011;10284;58.364;15.550;2023-11-19T03:19:43;4.57;;;2.58;;
20251;SDS011;10284;58.364;15.550;2023-11-19T03:22:09;4.43;;;2.55;;
20251;SDS011;10284;58.364;15.550;2023-11-19T03:24:36;4.50;;;2.55;;
20251;SDS011;10284;58.364;15.550;2023-11-19T03:27:01;6.25;;;2.80;;
20251;SDS011;10284;58.364;15.550;2023-11-19T03:29:26;3.70;;;2.70;;
20251;SDS011;10284;58.364;15.550;2023-11-19T03:31:53;3.35;;;2.53;;
20251;SDS011;10284;58.364;15.550;2023-11-19T03:34:19;4.22;;;2.70;;
20251;SDS011;10284;58.364;15.550;2023-11-19T03:36:44;3.15;;;2.70;;
20251;SDS011;10284;58.364;15.550;2023-11-19T03:39:10;3.75;;;2.63;;
20251;SDS011;10284;58.364;15.550;2023-11-19T03:41:36;5.15;;;2.80;;
20251;SDS011;10284;58.364;15.550;2023-11-19T03:44:01;4.03;;;2.35;;
20251;SDS011;10284;58.364;15.550;2023-11-19T03:46:26;4.78;;;2.83;;
20251;SDS011;10284;58.364;15.550;2023-11-19T03:48:52;3.17;;;2.53;;
20251;SDS011;10284;58.364;15.550;2023-11-19T03:51:17;4.82;;;2.20;;
20251;SDS011;10284;58.364;15.550;2023-11-19T03:53:43;4.18;;;2.90;;
20251;SDS011;10284;58.364;15.550;2023-11-19T03:56:12;4.57;;;2.95;;
20251;SDS011;10284;58.364;15.550;2023-11-19T03:58:38;5.05;;;2.83;;
20251;SDS011;10284;58.364;15.550;2023-11-19T04:01:04;7.30;;;3.45;;
20251;SDS011;10284;58.364;15.550;2023-11-19T04:03:32;6.07;;;3.20;;
20251;SDS011;10284;58.364;15.550;2023-11-19T04:05:57;6.00;;;3.47;;
20251;SDS011;10284;58.364;15.550;2023-11-19T04:08:24;4.80;;;2.75;;
20251;SDS011;10284;58.364;15.550;2023-11-19T04:10:49;4.32;;;2.92;;
20251;SDS011;10284;58.364;15.550;2023-11-19T04:13:14;5.00;;;3.20;;
20251;SDS011;10284;58.364;15.550;2023-11-19T04:15:40;6.18;;;3.35;;
20251;SDS011;10284;58.364;15.550;2023-11-19T04:18:06;5.40;;;3.38;;
20251;SDS011;10284;58.364;15.550;2023-11-19T04:20:32;8.40;;;3.30;;
20251;SDS011;10284;58.364;15.550;2023-11-19T04:22:57;5.38;;;3.25;;
20251;SDS011;10284;58.364;15.550;2023-11-19T04:25:25;6.00;;;3.20;;
20251;SDS011;10284;58.364;15.550;2023-11-19T04:27:51;5.30;;;2.85;;
20251;SDS011;10284;58.364;15.550;2023-11-19T04:30:16;7.30;;;3.17;;
20251;SDS011;10284;58.364;15.550;2023-11-19T04:32:43;4.85;;;3.33;;
20251;SDS011;10284;58.364;15.550;2023-11-19T04:35:09;6.10;;;3.00;;
20251;SDS011;10284;58.364;15.550;2023-11-19T04:37:34;5.63;;;3.65;;
20251;SDS011;10284;58.364;15.550;2023-11-19T04:39:59;5.57;;;3.53;;
20251;SDS011;10284;58.364;15.550;2023-11-19T04:42:25;6.30;;;3.40;;
20251;SDS011;10284;58.364;15.550;2023-11-19T04:44:50;6.95;;;3.13;;
20251;SDS011;10284;58.364;15.550;2023-11-19T04:47:16;5.95;;;3.40;;
20251;SDS011;10284;58.364;15.550;2023-11-19T04:49:41;4.97;;;3.50;;
20251;SDS011;10284;58.364;15.550;2023-11-19T04:52:09;5.82;;;3.33;;
20251;SDS011;10284;58.364;15.550;2023-11-19T04:54:40;6.80;;;3.60;;
20251;SDS011;10284;58.364;15.550;2023-11-19T04:57:08;7.07;;;3.65;;
20251;SDS011;10284;58.364;15.550;2023-11-19T04:59:37;5.78;;;3.42;;
20251;SDS011;10284;58.364;15.550;2023-11-19T05:02:03;5.22;;;3.47;;
20251;SDS011;10284;58.364;15.550;2023-11-19T05:04:29;6.72;;;3.70;;
20251;SDS011;10284;58.364;15.550;2023-11-19T05:06:55;6.85;;;4.05;;
20251;SDS011;10284;58.364;15.550;2023-11-19T05:09:20;6.20;;;3.60;;
20251;SDS011;10284;58.364;15.550;2023-11-19T05:11:45;7.10;;;3.85;;
20251;SDS011;10284;58.364;15.550;2023-11-19T05:14:11;5.80;;;3.30;;
20251;SDS011;10284;58.364;15.550;2023-11-19T05:16:39;6.82;;;3.63;;
20251;SDS011;10284;58.364;15.550;2023-11-19T05:19:04;5.43;;;3.88;;
20251;SDS011;10284;58.364;15.550;2023-11-19T05:21:30;6.45;;;3.85;;
20251;SDS011;10284;58.364;15.550;2023-11-19T05:23:55;6.70;;;3.45;;
20251;SDS011;10284;58.364;15.550;2023-11-19T05:26:22;5.32;;;3.10;;
20251;SDS011;10284;58.364;15.550;2023-11-19T05:28:49;7.40;;;4.07;;
20251;SDS011;10284;58.364;15.550;2023-11-19T05:31:15;6.47;;;4.03;;
20251;SDS011;10284;58.364;15.550;2023-11-19T05:33:41;5.38;;;3.30;;
20251;SDS011;10284;58.364;15.550;2023-11-19T05:36:07;5.85;;;3.50;;
20251;SDS011;10284;58.364;15.550;2023-11-19T05:38:33;5.38;;;3.40;;
20251;SDS011;10284;58.364;15.550;2023-11-19T05:41:01;5.38;;;3.50;;
20251;SDS011;10284;58.364;15.550;2023-11-19T05:43:27;5.88;;;3.53;;
20251;SDS011;10284;58.364;15.550;2023-11-19T05:45:53;5.30;;;3.50;;
20251;SDS011;10284;58.364;15.550;2023-11-19T05:48:18;7.03;;;3.80;;
20251;SDS011;10284;58.364;15.550;2023-11-19T05:50:43;6.05;;;3.45;;
20251;SDS011;10284;58.364;15.550;2023-11-19T05:53:15;5.85;;;3.97;;
20251;SDS011;10284;58.364;15.550;2023-11-19T05:55:41;7.13;;;3.90;;
20251;SDS011;10284;58.364;15.550;2023-11-19T05:58:24;7.30;;;4.15;;
20251;SDS011;10284;58.364;15.550;2023-11-19T06:00:51;8.07;;;3.88;;
20251;SDS011;10284;58.364;15.550;2023-11-19T06:03:16;5.47;;;3.30;;
20251;SDS011;10284;58.364;15.550;2023-11-19T06:05:44;7.53;;;4.47;;
20251;SDS011;10284;58.364;15.550;2023-11-19T06:08:10;9.85;;;3.75;;
20251;SDS011;10284;58.364;15.550;2023-11-19T06:10:38;6.03;;;3.67;;
20251;SDS011;10284;58.364;15.550;2023-11-19T06:13:06;6.80;;;3.58;;
20251;SDS011;10284;58.364;15.550;2023-11-19T06:15:32;5.88;;;3.75;;
20251;SDS011;10284;58.364;15.550;2023-11-19T06:17:58;5.50;;;3.40;;
20251;SDS011;10284;58.364;15.550;2023-11-19T06:20:26;6.57;;;3.90;;
20251;SDS011;10284;58.364;15.550;2023-11-19T06:22:53;5.82;;;3.45;;
20251;SDS011;10284;58.364;15.550;2023-11-19T06:25:19;5.53;;;3.28;;
20251;SDS011;10284;58.364;15.550;2023-11-19T06:27:44;4.35;;;3.10;;
20251;SDS011;10284;58.364;15.550;2023-11-19T06:30:10;8.15;;;3.40;;
20251;SDS011;10284;58.364;15.550;2023-11-19T06:32:36;4.45;;;2.88;;
20251;SDS011;10284;58.364;15.550;2023-11-19T06:35:02;5.95;;;3.42;;
20251;SDS011;10284;58.364;15.550;2023-11-19T06:37:29;5.55;;;3.35;;
20251;SDS011;10284;58.364;15.550;2023-11-19T06:39:55;5.47;;;3.50;;
20251;SDS011;10284;58.364;15.550;2023-11-19T06:42:20;4.07;;;3.10;;
20251;SDS011;10284;58.364;15.550;2023-11-19T06:44:46;5.03;;;3.13;;
20251;SDS011;10284;58.364;15.550;2023-11-19T06:47:11;5.28;;;3.40;;
20251;SDS011;10284;58.364;15.550;2023-11-19T06:49:36;4.70;;;3.30;;
20251;SDS011;10284;58.364;15.550;2023-11-19T06:52:02;6.78;;;3.22;;
20251;SDS011;10284;58.364;15.550;2023-11-19T06:54:27;5.28;;;3.25;;
20251;SDS011;10284;58.364;15.550;2023-11-19T06:56:53;4.80;;;2.85;;
20251;SDS011;10284;58.364;15.550;2023-11-19T06:59:18;5.00;;;3.28;;
20251;SDS011;10284;58.364;15.550;2023-11-19T07:01:44;4.43;;;3.00;;
20251;SDS011;10284;58.364;15.550;2023-11-19T07:04:12;4.63;;;3.03;;
20251;SDS011;10284;58.364;15.550;2023-11-19T07:06:37;7.30;;;3.40;;
20251;SDS011;10284;58.364;15.550;2023-11-19T07:09:04;9.90;;;3.00;;
20251;SDS011;10284;58.364;15.550;2023-11-19T07:11:38;5.82;;;3.45;;
20251;SDS011;10284;58.364;15.550;2023-11-19T07:14:04;6.70;;;3.47;;
20251;SDS011;10284;58.364;15.550;2023-11-19T07:16:31;4.30;;;2.90;;
20251;SDS011;10284;58.364;15.550;2023-11-19T07:18:57;6.13;;;3.20;;
20251;SDS011;10284;58.364;15.550;2023-11-19T07:21:25;5.53;;;3.28;;
20251;SDS011;10284;58.364;15.550;2023-11-19T07:23:50;5.32;;;3.80;;
20251;SDS011;10284;58.364;15.550;2023-11-19T07:26:16;4.93;;;3.10;;
20251;SDS011;10284;58.364;15.550;2023-11-19T07:28:42;7.05;;;4.32;;
20251;SDS011;10284;58.364;15.550;2023-11-19T07:31:10;5.53;;;3.45;;
20251;SDS011;10284;58.364;15.550;2023-11-19T07:33:35;5.93;;;3.88;;
20251;SDS011;10284;58.364;15.550;2023-11-19T07:36:01;5.32;;;3.53;;
20251;SDS011;10284;58.364;15.550;2023-11-19T07:38:26;4.45;;;3.40;;
20251;SDS011;10284;58.364;15.550;2023-11-19T07:40:52;4.90;;;3.30;;
20251;SDS011;10284;58.364;15.550;2023-11-19T07:43:17;4.60;;;3.13;;
20251;SDS011;10284;58.364;15.550;2023-11-19T07:45:42;15.93;;;6.78;;
20251;SDS011;10284;58.364;15.550;2023-11-19T07:48:11;6.15;;;3.70;;
20251;SDS011;10284;58.364;15.550;2023-11-19T07:50:38;4.20;;;3.22;;
20251;SDS011;10284;58.364;15.550;2023-11-19T07:53:05;5.43;;;3.70;;
20251;SDS011;10284;58.364;15.550;2023-11-19T07:55:32;4.50;;;3.47;;
20251;SDS011;10284;58.364;15.550;2023-11-19T07:57:58;4.38;;;3.47;;
20251;SDS011;10284;58.364;15.550;2023-11-19T08:00:23;4.78;;;3.55;;
20251;SDS011;10284;58.364;15.550;2023-11-19T08:02:48;5.28;;;3.67;;
20251;SDS011;10284;58.364;15.550;2023-11-19T08:05:14;4.85;;;3.20;;
20251;SDS011;10284;58.364;15.550;2023-11-19T08:07:39;4.55;;;3.25;;
20251;SDS011;10284;58.364;15.550;2023-11-19T08:10:05;4.55;;;3.25;;
20251;SDS011;10284;58.364;15.550;2023-11-19T08:12:34;6.93;;;3.55;;
20251;SDS011;10284;58.364;15.550;2023-11-19T08:15:01;7.15;;;3.40;;
20251;SDS011;10284;58.364;15.550;2023-11-19T08:17:30;4.63;;;3.38;;
20251;SDS011;10284;58.364;15.550;2023-11-19T08:19:55;5.53;;;3.42;;
20251;SDS011;10284;58.364;15.550;2023-11-19T08:22:20;6.03;;;3.97;;
20251;SDS011;10284;58.364;15.550;2023-11-19T08:24:47;6.50;;;3.88;;
20251;SDS011;10284;58.364;15.550;2023-11-19T08:27:13;5.85;;;3.88;;
20251;SDS011;10284;58.364;15.550;2023-11-19T08:29:38;5.07;;;3.97;;
20251;SDS011;10284;58.364;15.550;2023-11-19T08:32:03;5.50;;;3.80;;
20251;SDS011;10284;58.364;15.550;2023-11-19T08:34:29;5.90;;;3.88;;
20251;SDS011;10284;58.364;15.550;2023-11-19T08:36:55;6.50;;;3.90;;
20251;SDS011;10284;58.364;15.550;2023-11-19T08:39:21;7.63;;;5.07;;
20251;SDS011;10284;58.364;15.550;2023-11-19T08:41:47;6.80;;;4.10;;
20251;SDS011;10284;58.364;15.550;2023-11-19T08:44:13;6.25;;;4.88;;
20251;SDS011;10284;58.364;15.550;2023-11-19T08:46:38;5.60;;;4.25;;
20251;SDS011;10284;58.364;15.550;2023-11-19T08:49:04;7.22;;;4.53;;
20251;SDS011;10284;58.364;15.550;2023-11-19T08:51:30;5.95;;;3.88;;
20251;SDS011;10284;58.364;15.550;2023-11-19T08:53:56;5.55;;;4.38;;
20251;SDS011;10284;58.364;15.550;2023-11-19T08:56:22;5.97;;;4.22;;
20251;SDS011;10284;58.364;15.550;2023-11-19T08:58:48;7.10;;;4.40;;
20251;SDS011;10284;58.364;15.550;2023-11-19T09:01:13;5.43;;;4.05;;
20251;SDS011;10284;58.364;15.550;2023-11-19T09:03:38;6.10;;;3.90;;
20251;SDS011;10284;58.364;15.550;2023-11-19T09:06:04;6.18;;;4.18;;
20251;SDS011;10284;58.364;15.550;2023-11-19T09:08:29;5.00;;;3.60;;
20251;SDS011;10284;58.364;15.550;2023-11-19T09:10:55;4.97;;;3.75;;
20251;SDS011;10284;58.364;15.550;2023-11-19T09:13:20;6.90;;;4.38;;
20251;SDS011;10284;58.364;15.550;2023-11-19T09:15:45;6.47;;;4.38;;
20251;SDS011;10284;58.364;15.550;2023-11-19T09:18:11;6.57;;;4.30;;
20251;SDS011;10284;58.364;15.550;2023-11-19T09:20:36;7.00;;;4.78;;
20251;SDS011;10284;58.364;15.550;2023-11-19T09:23:04;6.68;;;4.78;;
20251;SDS011;10284;58.364;15.550;2023-11-19T09:25:30;7.82;;;4.80;;
20251;SDS011;10284;58.364;15.550;2023-11-19T09:27:56;7.80;;;4.78;;
20251;SDS011;10284;58.364;15.550;2023-11-19T09:30:21;8.18;;;4.85;;
20251;SDS011;10284;58.364;15.550;2023-11-19T09:32:47;6.93;;;4.40;;
20251;SDS011;10284;58.364;15.550;2023-11-19T09:35:13;6.63;;;4.85;;
20251;SDS011;10284;58.364;15.550;2023-11-19T09:37:39;8.60;;;4.53;;
20251;SDS011;10284;58.364;15.550;2023-11-19T09:40:05;8.63;;;4.63;;
20251;SDS011;10284;58.364;15.550;2023-11-19T09:42:37;8.35;;;5.35;;
20251;SDS011;10284;58.364;15.550;2023-11-19T09:45:13;5.85;;;4.22;;
20251;SDS011;10284;58.364;15.550;2023-11-19T09:47:44;10.20;;;5.30;;
20251;SDS011;10284;58.364;15.550;2023-11-19T09:50:13;6.97;;;4.40;;
20251;SDS011;10284;58.364;15.550;2023-11-19T09:52:41;8.20;;;4.18;;
20251;SDS011;10284;58.364;15.550;2023-11-19T09:55:06;6.40;;;4.05;;
20251;SDS011;10284;58.364;15.550;2023-11-19T09:57:32;9.95;;;4.53;;
20251;SDS011;10284;58.364;15.550;2023-11-19T09:59:59;6.50;;;4.78;;
20251;SDS011;10284;58.364;15.550;2023-11-19T10:02:24;5.35;;;3.92;;
20251;SDS011;10284;58.364;15.550;2023-11-19T10:04:52;6.25;;;3.97;;
20251;SDS011;10284;58.364;15.550;2023-11-19T10:07:18;5.38;;;4.00;;
20251;SDS011;10284;58.364;15.550;2023-11-19T10:09:43;6.65;;;4.05;;
20251;SDS011;10284;58.364;15.550;2023-11-19T10:12:09;6.35;;;4.07;;
20251;SDS011;10284;58.364;15.550;2023-11-19T10:14:34;5.90;;;4.03;;
20251;SDS011;10284;58.364;15.550;2023-11-19T10:17:02;7.55;;;4.43;;
20251;SDS011;10284;58.364;15.550;2023-11-19T10:19:29;7.32;;;5.22;;
20251;SDS011;10284;58.364;15.550;2023-11-19T10:21:54;6.63;;;4.35;;
20251;SDS011;10284;58.364;15.550;2023-11-19T10:24:32;10.13;;;4.28;;
20251;SDS011;10284;58.364;15.550;2023-11-19T10:26:59;7.10;;;4.57;;
20251;SDS011;10284;58.364;15.550;2023-11-19T10:29:29;7.95;;;4.43;;
20251;SDS011;10284;58.364;15.550;2023-11-19T10:31:58;6.88;;;4.30;;
20251;SDS011;10284;58.364;15.550;2023-11-19T10:34:27;5.78;;;3.70;;
20251;SDS011;10284;58.364;15.550;2023-11-19T10:36:53;6.25;;;4.10;;
20251;SDS011;10284;58.364;15.550;2023-11-19T10:39:18;6.78;;;4.53;;
20251;SDS011;10284;58.364;15.550;2023-11-19T10:41:44;5.82;;;4.07;;
20251;SDS011;10284;58.364;15.550;2023-11-19T10:44:09;9.43;;;4.53;;
20251;SDS011;10284;58.364;15.550;2023-11-19T10:46:41;7.10;;;4.47;;
20251;SDS011;10284;58.364;15.550;2023-11-19T10:49:08;7.38;;;4.53;;
20251;SDS011;10284;58.364;15.550;2023-11-19T10:51:34;6.18;;;4.25;;
20251;SDS011;10284;58.364;15.550;2023-11-19T10:54:03;7.65;;;4.68;;
20251;SDS011;10284;58.364;15.550;2023-11-19T10:56:31;7.38;;;4.85;;
20251;SDS011;10284;58.364;15.550;2023-11-19T10:58:57;8.32;;;5.35;;
20251;SDS011;10284;58.364;15.550;2023-11-19T11:01:24;8.13;;;4.85;;
20251;SDS011;10284;58.364;15.550;2023-11-19T11:03:55;9.27;;;5.07;;
20251;SDS011;10284;58.364;15.550;2023-11-19T11:06:22;6.47;;;4.35;;
20251;SDS011;10284;58.364;15.550;2023-11-19T11:08:48;8.68;;;5.07;;
20251;SDS011;10284;58.364;15.550;2023-11-19T11:11:15;7.57;;;4.57;;
20251;SDS011;10284;58.364;15.550;2023-11-19T11:13:42;6.97;;;4.88;;
20251;SDS011;10284;58.364;15.550;2023-11-19T11:16:08;7.75;;;4.90;;
20251;SDS011;10284;58.364;15.550;2023-11-19T11:18:33;7.80;;;4.95;;
20251;SDS011;10284;58.364;15.550;2023-11-19T11:35:08;7.77;;;4.97;;
20251;SDS011;10284;58.364;15.550;2023-11-19T11:40:03;10.15;;;5.03;;
20251;SDS011;10284;58.364;15.550;2023-11-19T11:42:35;11.05;;;4.82;;
20251;SDS011;10284;58.364;15.550;2023-11-19T11:45:07;7.43;;;4.68;;
20251;SDS011;10284;58.364;15.550;2023-11-19T11:50:14;7.70;;;4.70;;
20251;SDS011;10284;58.364;15.550;2023-11-19T11:57:56;8.25;;;5.00;;
20251;SDS011;10284;58.364;15.550;2023-11-19T12:00:22;7.90;;;5.00;;
20251;SDS011;10284;58.364;15.550;2023-11-19T12:02:48;7.72;;;4.47;;
20251;SDS011;10284;58.364;15.550;2023-11-19T12:05:14;8.63;;;5.05;;
20251;SDS011;10284;58.364;15.550;2023-11-19T12:07:39;6.40;;;4.60;;
20251;SDS011;10284;58.364;15.550;2023-11-19T12:10:08;8.27;;;4.90;;
20251;SDS011;10284;58.364;15.550;2023-11-19T12:12:37;7.63;;;4.97;;
20251;SDS011;10284;58.364;15.550;2023-11-19T12:17:47;9.02;;;4.78;;
20251;SDS011;10284;58.364;15.550;2023-11-19T12:20:17;7.32;;;4.50;;
20251;SDS011;10284;58.364;15.550;2023-11-19T12:22:44;7.45;;;5.10;;
20251;SDS011;10284;58.364;15.550;2023-11-19T12:25:11;9.25;;;5.00;;
20251;SDS011;10284;58.364;15.550;2023-11-19T12:27:44;7.40;;;4.88;;
20251;SDS011;10284;58.364;15.550;2023-11-19T12:30:16;8.15;;;4.75;;
20251;SDS011;10284;58.364;15.550;2023-11-19T12:32:52;7.35;;;4.75;;
20251;SDS011;10284;58.364;15.550;2023-11-19T12:35:18;6.47;;;4.78;;
20251;SDS011;10284;58.364;15.550;2023-11-19T12:37:51;7.65;;;5.15;;
20251;SDS011;10284;58.364;15.550;2023-11-19T12:40:21;6.93;;;4.72;;
20251;SDS011;10284;58.364;15.550;2023-11-19T12:42:51;7.53;;;4.85;;
20251;SDS011;10284;58.364;15.550;2023-11-19T12:45:18;6.95;;;5.18;;
20251;SDS011;10284;58.364;15.550;2023-11-19T12:47:45;7.72;;;4.80;;
20251;SDS011;10284;58.364;15.550;2023-11-19T12:50:13;8.82;;;5.22;;
20251;SDS011;10284;58.364;15.550;2023-11-19T12:52:38;8.40;;;5.03;;
20251;SDS011;10284;58.364;15.550;2023-11-19T12:55:04;8.70;;;5.30;;
20251;SDS011;10284;58.364;15.550;2023-11-19T12:57:37;8.35;;;4.78;;
20251;SDS011;10284;58.364;15.550;2023-11-19T13:00:06;6.85;;;5.05;;
20251;SDS011;10284;58.364;15.550;2023-11-19T13:02:47;6.45;;;4.93;;
20251;SDS011;10284;58.364;15.550;2023-11-19T13:05:24;6.22;;;4.65;;
20251;SDS011;10284;58.364;15.550;2023-11-19T13:08:00;10.63;;;5.28;;
20251;SDS011;10284;58.364;15.550;2023-11-19T13:13:06;7.68;;;5.05;;
20251;SDS011;10284;58.364;15.550;2023-11-19T13:15:33;9.00;;;5.00;;
20251;SDS011;10284;58.364;15.550;2023-11-19T13:17:59;8.48;;;5.18;;
20251;SDS011;10284;58.364;15.550;2023-11-19T13:20:25;9.73;;;4.95;;
20251;SDS011;10284;58.364;15.550;2023-11-19T13:23:01;7.65;;;5.32;;
20251;SDS011;10284;58.364;15.550;2023-11-19T13:25:27;7.00;;;4.57;;
20251;SDS011;10284;58.364;15.550;2023-11-19T13:27:53;7.30;;;4.90;;
20251;SDS011;10284;58.364;15.550;2023-11-19T13:30:19;7.00;;;4.93;;
20251;SDS011;10284;58.364;15.550;2023-11-19T13:32:45;9.68;;;5.30;;
20251;SDS011;10284;58.364;15.550;2023-11-19T13:35:14;5.82;;;4.40;;
20251;SDS011;10284;58.364;15.550;2023-11-19T13:37:40;8.57;;;5.13;;
20251;SDS011;10284;58.364;15.550;2023-11-19T13:40:06;7.13;;;5.07;;
20251;SDS011;10284;58.364;15.550;2023-11-19T13:42:32;7.82;;;4.85;;
20251;SDS011;10284;58.364;15.550;2023-11-19T13:44:58;9.05;;;4.93;;
20251;SDS011;10284;58.364;15.550;2023-11-19T13:47:23;7.82;;;4.93;;
20251;SDS011;10284;58.364;15.550;2023-11-19T13:49:49;8.57;;;5.05;;
20251;SDS011;10284;58.364;15.550;2023-11-19T13:52:14;6.70;;;4.53;;
20251;SDS011;10284;58.364;15.550;2023-11-19T13:54:40;6.32;;;5.22;;
20251;SDS011;10284;58.364;15.550;2023-11-19T13:57:06;7.20;;;4.78;;
20251;SDS011;10284;58.364;15.550;2023-11-19T13:59:31;6.68;;;5.10;;
20251;SDS011;10284;58.364;15.550;2023-11-19T14:01:59;7.45;;;6.20;;
20251;SDS011;10284;58.364;15.550;2023-11-19T14:04:25;7.45;;;5.35;;
20251;SDS011;10284;58.364;15.550;2023-11-19T14:06:50;10.13;;;6.07;;
20251;SDS011;10284;58.364;15.550;2023-11-19T14:09:16;9.15;;;5.50;;
20251;SDS011;10284;58.364;15.550;2023-11-19T14:11:42;9.07;;;5.85;;
20251;SDS011;10284;58.364;15.550;2023-11-19T14:14:07;10.05;;;6.20;;
20251;SDS011;10284;58.364;15.550;2023-11-19T14:16:33;8.57;;;5.90;;
20251;SDS011;10284;58.364;15.550;2023-11-19T14:18:59;8.85;;;6.03;;
20251;SDS011;10284;58.364;15.550;2023-11-19T14:21:24;9.07;;;6.50;;
20251;SDS011;10284;58.364;15.550;2023-11-19T14:23:51;8.50;;;5.68;;
20251;SDS011;10284;58.364;15.550;2023-11-19T14:26:17;9.57;;;6.28;;
20251;SDS011;10284;58.364;15.550;2023-11-19T14:28:43;10.57;;;7.13;;
20251;SDS011;10284;58.364;15.550;2023-11-19T14:31:08;9.73;;;6.97;;
20251;SDS011;10284;58.364;15.550;2023-11-19T14:33:33;9.23;;;6.90;;
20251;SDS011;10284;58.364;15.550;2023-11-19T14:36:00;12.40;;;7.15;;
20251;SDS011;10284;58.364;15.550;2023-11-19T14:38:26;10.18;;;7.05;;
20251;SDS011;10284;58.364;15.550;2023-11-19T14:40:51;9.95;;;6.57;;
20251;SDS011;10284;58.364;15.550;2023-11-19T14:43:17;11.65;;;7.45;;
20251;SDS011;10284;58.364;15.550;2023-11-19T14:45:42;10.25;;;6.70;;
20251;SDS011;10284;58.364;15.550;2023-11-19T14:48:08;11.68;;;7.97;;
20251;SDS011;10284;58.364;15.550;2023-11-19T14:50:35;11.38;;;6.90;;
20251;SDS011;10284;58.364;15.550;2023-11-19T14:53:00;11.45;;;7.40;;
20251;SDS011;10284;58.364;15.550;2023-11-19T14:55:26;11.95;;;7.57;;
20251;SDS011;10284;58.364;15.550;2023-11-19T14:57:51;10.63;;;7.40;;
20251;SDS011;10284;58.364;15.550;2023-11-19T15:00:16;11.75;;;7.00;;